Aérodrome :
LOGIN :

S'inscrire | Disclaimer

   EN    FR    IT 

 










Légende :    VFR   VFR Marginal   IFR   IFR Intensif   IFR Très Intensif
Visi : 
Plafond : 
>= 8 km
>= 3000ft
5 à 8 km
1000 à 3000 ft
1500m à 5 km
500 à 1000 ft
800 à 1500m
200 à 500 ft
< 800m
< 200 ft
Symboles :   Orages  Brouillard  Fortes neiges  Fortes précipitations  Vent > 20 kt
SIGMETs :   Divers  Orages  Givrage  Turbulence  Onde Orograph.  Cendres Volcan.







- Altitude de l'aérodrome : 502 ft
- Code IATA : ORK


EICK - Cork

DERNIER METAR :
  • 201400Z 04012KT 8000 -RA BKN002 BKN010 10/10 Q0998 BECMG BKN004

METARs EXPIRÉS :
  • 201330Z 03011KT 5000 -RADZ BKN004 BKN010 10/10 Q0999 NOSIG
  • 201300Z 02013KT 4000 -RADZ BKN004 BKN010 10/09 Q0999 NOSIG
  • 201230Z 03013KT 7000 -RA BKN003 BKN008 09/09 Q1000 TEMPO 2000 BKN002
  • 201200Z 02009KT 6000 -RA BKN003 BKN008 09/09 Q1002 TEMPO 2000 BKN002
  • 201130Z 04010KT 4000 -RA BKN003 BKN008 10/09 Q1002 TEMPO 2000 BKN002

TAF TAF EICK
Valide du 20 à 12h jusqu'au 21 à 12h UTC


201100Z 2012/2112 06011KT 9999 -RA SCT004 BKN012
TEMPO 2012/2021 4000 RA BKN004
PROB40
TEMPO 2012/2021 2000 RADZ BKN002
BECMG 2015/2017 01015KT
BECMG 2017/2019 33015KT
BECMG 2020/2023 30016G26KT SCT012 BKN025
TEMPO 2020/2023 30022G33KT
BECMG 2100/2103 27013KT
PROB30
TEMPO 2103/2112 -SHRA BKN012 SCT018CB
BECMG 2106/2109 28016G26KT
TEMPO 2109/2112 28021G32KT
Pas de NOTAMs connus pour ce terrain.



MET'MAP, la Météo Aéronautique d'un coup d'oeil ! - Copyright ORBIFLY Décembre 2007 - Disclaimer

ORBIFLY MET'MAP TEAM :

Programmation & Développement : Alexandra Zaïnal
Conception & Développement : Baudouin d'Aumeries
Co-Programmation & Développement : Marc-Olivier Méhu
Soutien technique & logistique : Manuel Goepfert

Contact : metmap@orbifly.com




SOURCES & CREDITS :

   NOAA